Time;durP1;ratioP1;P1;durP2;ratioP2;P2;SDS_P1;SDS_P2;PMS_P1;PMS_P2;Temp;Humidity;BMP_temperature;BMP_pressure;BME280_temperature;BME280_humidity;BME280_pressure;Samples;Min_cycle;Max_cycle;Signal;HPM_P1;HPM_P2
2021/06/21 00:02:19;;;;;;;2.63;1.50;;;;;;;21.23;85.58;100259.44;4947494;28;20393;-74
2021/06/21 00:04:44;;;;;;;4.68;1.52;;;;;;;21.17;85.56;100255.69;4947388;28;20031;-74
2021/06/21 00:07:09;;;;;;;7.40;1.70;;;;;;;21.18;86.04;100238.03;4949705;28;20050;-74
2021/06/21 00:09:35;;;;;;;3.58;1.50;;;;;;;21.22;85.45;100238.72;4945194;28;20067;-74
2021/06/21 00:12:00;;;;;;;2.38;1.60;;;;;;;21.14;85.95;100240.13;4939782;28;20100;-74
2021/06/21 00:14:26;;;;;;;4.25;1.83;;;;;;;20.96;86.55;100250.81;4946874;29;20071;-74
2021/06/21 00:16:51;;;;;;;7.60;2.00;;;;;;;20.81;87.50;100244.19;4949053;28;20027;-74
2021/06/21 00:19:17;;;;;;;3.55;1.70;;;;;;;20.90;86.74;100246.28;4942968;28;20049;-74
2021/06/21 00:21:42;;;;;;;5.57;2.30;;;;;;;20.78;87.12;100256.00;4948623;28;20037;-74
2021/06/21 00:24:08;;;;;;;5.93;1.80;;;;;;;20.80;87.29;100263.78;4948205;28;20059;-74
2021/06/21 00:26:34;;;;;;;3.97;1.70;;;;;;;20.89;86.72;100264.69;4947247;28;20039;-74
2021/06/21 00:28:59;;;;;;;4.88;1.70;;;;;;;20.78;87.66;100272.44;4944190;28;20572;-74
2021/06/21 00:31:25;;;;;;;3.70;1.45;;;;;;;20.75;87.65;100281.50;4948624;29;20498;-74
2021/06/21 00:33:51;;;;;;;4.78;1.55;;;;;;;20.73;87.74;100278.41;4948711;28;20533;-74
2021/06/21 00:36:16;;;;;;;3.90;1.98;;;;;;;20.74;87.36;100282.72;4942561;28;20038;-74
2021/06/21 00:38:42;;;;;;;6.05;1.70;;;;;;;20.70;87.66;100282.03;4956814;28;20050;-74
2021/06/21 00:41:07;;;;;;;3.92;1.52;;;;;;;20.68;87.69;100268.00;4961579;28;20086;-74
2021/06/21 00:43:33;;;;;;;6.50;2.00;;;;;;;20.74;87.59;100265.50;4949854;28;20031;-74
2021/06/21 00:45:58;;;;;;;4.22;1.88;;;;;;;20.78;87.61;100275.16;4938250;28;20047;-74
2021/06/21 00:48:24;;;;;;;3.45;1.52;;;;;;;20.78;87.64;100264.22;4964180;28;20035;-74
2021/06/21 00:50:50;;;;;;;4.40;1.60;;;;;;;20.62;88.13;100270.50;4938103;29;20509;-75
2021/06/21 00:53:16;;;;;;;4.00;1.92;;;;;;;20.61;88.19;100271.69;4952371;29;20031;-73
2021/06/21 00:55:42;;;;;;;2.78;1.63;;;;;;;20.69;87.80;100272.31;4953051;28;20451;-74
2021/06/21 00:58:07;;;;;;;6.00;1.95;;;;;;;20.70;87.29;100265.63;4962563;28;20035;-75
2021/06/21 01:00:33;;;;;;;3.28;1.83;;;;;;;20.74;86.83;100260.81;4944330;29;20070;-75
2021/06/21 01:03:03;;;;;;;4.15;2.08;;;;;;;20.61;87.97;100243.59;4953670;28;20110;-75
2021/06/21 01:05:31;;;;;;;6.97;2.00;;;;;;;20.72;87.12;100237.81;4950407;28;20564;-75
2021/06/21 01:07:57;;;;;;;3.25;2.03;;;;;;;20.59;88.35;100237.78;4963731;28;20035;-75
2021/06/21 01:10:24;;;;;;;4.32;2.00;;;;;;;20.57;88.51;100227.28;4948003;28;20039;-75
2021/06/21 01:13:08;;;;;;;6.43;2.20;;;;;;;20.52;88.54;100222.31;4945866;29;20051;-75
2021/06/21 01:15:44;;;;;;;5.05;2.20;;;;;;;20.39;89.38;100226.19;4948332;28;20121;-75
2021/06/21 01:18:13;;;;;;;12.25;2.05;;;;;;;20.55;88.54;100229.66;4944855;29;20094;-75
2021/06/21 01:20:56;;;;;;;6.68;2.35;;;;;;;20.42;88.57;100212.41;4952997;29;20137;-74
2021/06/21 01:23:58;;;;;;;9.80;2.25;;;;;;;20.47;88.68;100227.53;4952454;28;20105;-75
2021/06/21 01:26:48;;;;;;;9.68;2.47;;;;;;;20.40;88.93;100222.28;4945778;29;20490;-75
2021/06/21 01:29:35;;;;;;;7.75;2.20;;;;;;;20.48;88.47;100199.75;4950277;29;20047;-75
2021/06/21 01:32:13;;;;;;;5.72;2.15;;;;;;;20.48;88.15;100210.69;4943341;28;20043;-74
2021/06/21 01:34:46;;;;;;;8.32;2.42;;;;;;;20.32;88.86;100209.97;4946895;28;20046;-74
2021/06/21 01:37:14;;;;;;;10.75;3.17;;;;;;;20.41;88.89;100215.59;4947690;28;20035;-75
2021/06/21 01:39:40;;;;;;;9.90;3.17;;;;;;;20.35;88.89;100212.63;4956596;28;20179;-75
2021/06/21 01:42:09;;;;;;;8.07;3.22;;;;;;;20.32;88.75;100205.28;4939228;29;20160;-75
2021/06/21 01:44:39;;;;;;;8.15;2.53;;;;;;;20.32;89.34;100201.78;4951266;29;20058;-75
2021/06/21 01:47:06;;;;;;;9.48;2.40;;;;;;;20.42;88.94;100196.00;4941029;29;20075;-75
2021/06/21 01:49:37;;;;;;;7.43;2.40;;;;;;;20.41;88.76;100177.28;4947615;29;20075;-74
2021/06/21 01:52:04;;;;;;;10.07;2.70;;;;;;;20.51;87.76;100168.78;4950983;28;20042;-75
2021/06/21 01:54:31;;;;;;;12.32;2.97;;;;;;;20.46;87.89;100152.16;4941956;28;20031;-75
2021/06/21 01:57:02;;;;;;;7.40;2.88;;;;;;;20.17;89.23;100148.63;4949212;28;20083;-74
2021/06/21 01:59:28;;;;;;;;;;;;;;;19.98;90.10;100153.00;4960750;28;20027;-74
2021/06/21 02:01:58;;;;;;;5.75;2.80;;;;;;;20.13;89.52;100139.75;4971935;23;19971;-74
2021/06/21 02:04:25;;;;;;;15.90;3.30;;;;;;;20.20;89.63;100151.28;4992347;28;20165;-74
2021/06/21 02:06:52;;;;;;;6.13;2.97;;;;;;;20.26;89.26;100146.06;4991055;28;20049;-74
2021/06/21 02:09:24;;;;;;;7.03;3.05;;;;;;;20.16;89.23;100145.13;4992504;28;20041;-74
2021/06/21 02:11:52;;;;;;;10.60;2.90;;;;;;;20.08;89.97;100159.41;4991210;28;20026;-74
2021/06/21 02:14:21;;;;;;;6.00;2.92;;;;;;;20.06;89.81;100156.31;4992023;28;20061;-74
2021/06/21 02:16:49;;;;;;;9.68;3.47;;;;;;;20.13;90.15;100153.41;4989492;28;20048;-74
2021/06/21 02:19:15;;;;;;;11.35;3.35;;;;;;;19.93;91.04;100152.78;4990764;28;20038;-74
2021/06/21 02:21:42;;;;;;;9.00;3.17;;;;;;;19.94;91.08;100157.81;4987868;28;20551;-74
2021/06/21 02:24:08;;;;;;;9.30;3.38;;;;;;;19.90;91.64;100167.31;4980883;28;20054;-74
2021/06/21 02:26:33;;;;;;;8.57;3.33;;;;;;;19.86;92.05;100175.59;4991676;28;20038;-74
2021/06/21 02:29:01;;;;;;;8.38;3.30;;;;;;;19.90;92.64;100170.03;4973635;28;20029;-73
2021/06/21 02:31:27;;;;;;;10.23;3.05;;;;;;;20.07;91.57;100187.94;4989315;28;20081;-73
2021/06/21 02:33:52;;;;;;;7.47;3.60;;;;;;;20.04;92.45;100183.34;4991765;28;20555;-73
2021/06/21 02:36:18;;;;;;;7.00;3.42;;;;;;;19.95;93.60;100189.44;4987561;28;20034;-73
2021/06/21 02:38:44;;;;;;;7.15;3.33;;;;;;;19.73;94.90;100197.38;4979171;28;20042;-74
2021/06/21 02:41:09;;;;;;;9.45;3.72;;;;;;;19.80;94.89;100193.72;4991883;28;20084;-74
2021/06/21 02:43:37;;;;;;;10.88;4.00;;;;;;;19.76;94.59;100207.44;4985292;28;20039;-74
2021/06/21 02:46:03;;;;;;;13.07;4.90;;;;;;;19.85;95.02;100204.13;4974589;28;20054;-73
2021/06/21 02:48:28;;;;;;;13.27;4.07;;;;;;;19.83;95.50;100203.78;4989711;28;20153;-74
2021/06/21 02:50:55;;;;;;;13.25;4.38;;;;;;;19.59;97.96;100203.19;4988048;28;20030;-74
2021/06/21 02:53:51;;;;;;;8.63;4.45;;;;;;;19.57;99.15;100197.38;4987390;28;20046;-74
2021/06/21 02:56:43;;;;;;;10.75;4.20;;;;;;;19.49;99.78;100198.72;4961363;28;20077;-74
2021/06/21 02:59:11;;;;;;;12.63;4.25;;;;;;;19.49;100.00;100196.00;4990107;28;20030;-74
2021/06/21 03:01:43;;;;;;;11.63;4.43;;;;;;;19.51;100.00;100193.63;4972515;28;20058;-74
2021/06/21 03:04:11;;;;;;;9.80;3.90;;;;;;;19.60;100.00;100185.63;4979945;28;20113;-74
2021/06/21 03:06:37;;;;;;;8.85;4.22;;;;;;;19.64;98.99;100178.09;4991561;28;20113;-74
2021/06/21 03:09:03;;;;;;;14.38;4.18;;;;;;;19.50;100.00;100175.69;4989229;28;20114;-74
2021/06/21 03:11:31;;;;;;;8.82;4.47;;;;;;;19.58;100.00;100179.81;4999553;28;20081;-74
2021/06/21 03:13:57;;;;;;;10.98;3.88;;;;;;;19.45;100.00;100168.00;4973517;28;20100;-74
2021/06/21 03:16:26;;;;;;;8.18;4.38;;;;;;;19.39;100.00;100177.94;4997370;28;20072;-75
2021/06/21 03:18:53;;;;;;;10.70;3.95;;;;;;;19.51;100.00;100176.47;4991270;28;20041;-74
2021/06/21 03:21:19;;;;;;;9.02;4.25;;;;;;;19.52;99.92;100181.50;4996760;28;20030;-74
2021/06/21 03:23:53;;;;;;;12.93;4.78;;;;;;;19.42;100.00;100177.06;4981985;28;20099;-74
2021/06/21 03:26:24;;;;;;;10.18;4.30;;;;;;;19.50;100.00;100175.69;4990136;28;20030;-74
2021/06/21 03:28:50;;;;;;;10.10;5.03;;;;;;;19.57;100.00;100172.00;4989704;28;20109;-73
2021/06/21 03:31:17;;;;;;;8.10;4.72;;;;;;;19.56;100.00;100163.06;4978422;28;20113;-73
2021/06/21 03:33:42;;;;;;;8.60;4.60;;;;;;;19.52;100.00;100151.47;4989728;28;20293;-74
2021/06/21 03:36:08;;;;;;;7.97;4.60;;;;;;;19.56;100.00;100151.38;4984820;28;20042;-74
2021/06/21 03:38:33;;;;;;;10.68;4.15;;;;;;;19.53;100.00;100154.97;4987967;28;20064;-74
2021/06/21 03:41:01;;;;;;;12.18;4.82;;;;;;;19.56;100.00;100154.09;5003764;28;20125;-73
2021/06/21 03:43:28;;;;;;;8.23;4.18;;;;;;;19.49;100.00;100149.56;5004743;28;20074;-74
2021/06/21 03:45:57;;;;;;;13.93;4.50;;;;;;;19.45;100.00;100148.13;4985029;28;20022;-74
2021/06/21 03:48:23;;;;;;;8.23;4.38;;;;;;;19.37;100.00;100160.41;4990998;28;20034;-74
2021/06/21 03:50:49;;;;;;;9.00;4.40;;;;;;;19.30;100.00;100146.91;4989572;28;20034;-74
2021/06/21 03:53:17;;;;;;;6.30;4.05;;;;;;;19.36;100.00;100150.66;4989632;28;20046;-74
2021/06/21 03:55:42;;;;;;;10.88;4.32;;;;;;;19.40;100.00;100146.66;4989146;28;20575;-75
2021/06/21 03:58:08;;;;;;;8.15;4.40;;;;;;;19.37;100.00;100144.03;4991182;28;20101;-74
2021/06/21 04:00:36;;;;;;;5.90;3.67;;;;;;;19.21;100.00;100150.22;4989946;28;20038;-75
2021/06/21 04:03:03;;;;;;;6.00;4.30;;;;;;;19.30;100.00;100149.63;4975297;28;20030;-74
2021/06/21 04:05:29;;;;;;;9.52;4.38;;;;;;;19.28;100.00;100146.56;4989061;28;20026;-74
2021/06/21 04:07:55;;;;;;;8.88;4.20;;;;;;;19.16;100.00;100142.53;4991245;28;20027;-74
2021/06/21 04:10:23;;;;;;;9.40;4.70;;;;;;;19.24;100.00;100132.22;4980909;28;20086;-74
2021/06/21 04:12:51;;;;;;;4.97;3.65;;;;;;;19.35;100.00;100130.03;5002615;28;20526;-74
2021/06/21 04:15:20;;;;;;;6.30;4.18;;;;;;;19.14;100.00;100114.13;4989450;28;20038;-74
2021/06/21 04:17:46;;;;;;;10.40;4.40;;;;;;;19.47;100.00;100116.44;4989816;28;20026;-74
2021/06/21 04:20:16;;;;;;;10.02;4.40;;;;;;;19.23;100.00;100112.34;4992838;28;20424;-75
2021/06/21 04:22:42;;;;;;;13.48;4.28;;;;;;;19.13;100.00;100105.16;5009902;28;20389;-75
2021/06/21 04:25:11;;;;;;;8.38;4.43;;;;;;;19.20;100.00;100072.22;4990056;28;20412;-74
2021/06/21 04:27:37;;;;;;;9.35;4.85;;;;;;;19.14;100.00;100079.41;4989716;28;20500;-74
2021/06/21 04:30:08;;;;;;;10.38;4.63;;;;;;;19.04;100.00;100102.25;4985393;28;20109;-74
2021/06/21 04:32:34;;;;;;;8.77;4.25;;;;;;;19.06;100.00;100126.41;4990259;28;20124;-74
2021/06/21 04:35:00;;;;;;;10.52;4.88;;;;;;;19.12;100.00;100106.38;4983760;28;20045;-75
2021/06/21 04:37:26;;;;;;;8.30;4.00;;;;;;;19.07;100.00;100092.44;5009750;28;20034;-74
2021/06/21 04:39:51;;;;;;;11.20;4.28;;;;;;;19.17;100.00;100092.19;5006782;28;20121;-74
2021/06/21 04:42:16;;;;;;;8.48;4.20;;;;;;;19.04;100.00;100088.59;5009276;28;20480;-74
2021/06/21 04:44:42;;;;;;;7.07;4.00;;;;;;;19.13;100.00;100090.72;4988713;28;20046;-75
2021/06/21 04:47:07;;;;;;;6.18;3.85;;;;;;;19.15;100.00;100097.31;4985484;28;20034;-74
2021/06/21 04:49:33;;;;;;;5.07;3.70;;;;;;;19.09;100.00;100100.97;4992134;28;20045;-74
2021/06/21 04:51:59;;;;;;;6.55;3.75;;;;;;;19.08;100.00;100113.09;4993222;28;20033;-74
2021/06/21 04:54:25;;;;;;;6.47;3.67;;;;;;;19.06;100.00;100097.13;4994377;28;20389;-74
2021/06/21 04:56:50;;;;;;;6.07;3.58;;;;;;;19.16;100.00;100087.94;4992338;28;20042;-74
2021/06/21 04:59:16;;;;;;;5.88;3.72;;;;;;;19.15;100.00;100089.13;4987343;28;20104;-74
2021/06/21 05:01:41;;;;;;;5.15;3.58;;;;;;;18.92;100.00;100098.22;4994003;28;20030;-74
2021/06/21 05:04:07;;;;;;;4.35;3.35;;;;;;;18.98;100.00;100089.53;4992897;28;20558;-74
2021/06/21 05:06:37;;;;;;;5.22;3.10;;;;;;;19.08;100.00;100099.44;4989350;28;20027;-74
2021/06/21 05:09:08;;;;;;;5.07;3.60;;;;;;;19.08;100.00;100104.91;4982686;28;20081;-73
2021/06/21 05:11:35;;;;;;;4.38;3.47;;;;;;;19.04;100.00;100098.75;4979366;28;20708;-73
2021/06/21 05:14:00;;;;;;;6.35;3.40;;;;;;;19.06;100.00;100075.31;4986136;28;20043;-73
2021/06/21 05:16:26;;;;;;;5.72;3.45;;;;;;;18.98;100.00;100073.16;4987292;28;20056;-73
2021/06/21 05:18:52;;;;;;;6.75;3.20;;;;;;;18.99;100.00;100069.25;4976622;28;20029;-73
2021/06/21 05:21:18;;;;;;;4.25;2.90;;;;;;;18.96;100.00;100064.63;4992626;28;20031;-74
2021/06/21 05:23:43;;;;;;;4.68;2.83;;;;;;;19.06;100.00;100058.91;4988812;28;20073;-76
2021/06/21 05:26:10;;;;;;;5.57;2.90;;;;;;;19.15;100.00;100050.13;4978612;28;20077;-73
2021/06/21 05:28:35;;;;;;;5.70;2.88;;;;;;;19.05;100.00;100035.53;4981803;28;20117;-73
2021/06/21 05:31:01;;;;;;;3.03;2.58;;;;;;;18.84;100.00;100031.34;4991001;28;20522;-73
2021/06/21 05:33:27;;;;;;;3.20;2.25;;;;;;;18.93;100.00;100023.34;4993035;28;20042;-73
2021/06/21 05:35:52;;;;;;;2.75;2.28;;;;;;;19.00;100.00;100008.75;4990183;28;20058;-74
2021/06/21 05:38:17;;;;;;;3.78;2.17;;;;;;;19.13;100.00;100001.41;4974505;28;20035;-73
2021/06/21 05:40:43;;;;;;;2.83;2.40;;;;;;;19.01;100.00;100006.81;4986550;28;20026;-73
2021/06/21 05:43:08;;;;;;;2.85;1.80;;;;;;;19.22;100.00;100006.28;4992633;28;20619;-73
2021/06/21 05:45:34;;;;;;;3.22;1.90;;;;;;;18.92;100.00;100016.34;4985356;28;20039;-73
2021/06/21 05:47:59;;;;;;;3.70;2.28;;;;;;;19.00;100.00;100008.75;4992288;28;20037;-73
2021/06/21 05:50:25;;;;;;;3.45;2.58;;;;;;;19.02;100.00;99991.94;4988266;28;20022;-73
2021/06/21 05:52:51;;;;;;;4.80;2.10;;;;;;;19.18;100.00;99987.22;4993210;28;20480;-73
2021/06/21 05:55:20;;;;;;;2.42;1.70;;;;;;;19.09;100.00;99998.00;4993100;28;20038;-73
2021/06/21 05:57:49;;;;;;;4.78;1.80;;;;;;;19.21;100.00;99993.81;4992848;28;20042;-74
2021/06/21 06:00:15;;;;;;;1.98;1.77;;;;;;;19.08;100.00;100006.63;4993419;28;20042;-73
2021/06/21 06:02:41;;;;;;;2.33;1.80;;;;;;;19.18;100.00;99997.41;4979760;28;20026;-73
2021/06/21 06:05:07;;;;;;;5.53;1.98;;;;;;;19.14;100.00;99999.44;4977830;28;20050;-73
2021/06/21 06:07:33;;;;;;;2.40;2.00;;;;;;;19.21;100.00;99991.06;4982634;28;20026;-74
2021/06/21 06:09:59;;;;;;;1.65;1.48;;;;;;;19.18;100.00;99984.50;4986159;28;20404;-73
2021/06/21 06:12:25;;;;;;;2.15;1.95;;;;;;;19.10;100.00;99988.63;4986159;28;20109;-73
2021/06/21 06:14:51;;;;;;;3.70;1.70;;;;;;;19.17;100.00;99974.00;4989304;28;20504;-73
2021/06/21 06:17:16;;;;;;;3.13;2.00;;;;;;;19.14;100.00;99972.94;4986481;28;20513;-73
2021/06/21 06:19:42;;;;;;;3.78;1.90;;;;;;;19.20;100.00;99998.50;5001079;28;20045;-73
2021/06/21 06:22:08;;;;;;;2.42;1.90;;;;;;;19.38;100.00;99973.47;4991349;28;20065;-73
2021/06/21 06:24:37;;;;;;;1.63;1.52;;;;;;;19.31;100.00;99977.16;4979641;28;20559;-73
2021/06/21 06:27:03;;;;;;;1.85;1.75;;;;;;;19.32;100.00;99988.81;4988652;28;20500;-73
2021/06/21 06:29:29;;;;;;;4.90;1.80;;;;;;;19.13;100.00;99984.25;4993000;28;20049;-73
2021/06/21 06:31:55;;;;;;;3.00;1.70;;;;;;;19.13;100.00;99979.56;4989165;28;20027;-73
2021/06/21 06:34:22;;;;;;;1.80;1.70;;;;;;;19.08;100.00;99991.00;4972925;28;20034;-73
2021/06/21 06:36:47;;;;;;;2.20;1.75;;;;;;;19.29;100.00;99993.19;4981213;28;20038;-73
2021/06/21 06:39:13;;;;;;;2.42;2.00;;;;;;;19.23;100.00;99994.91;4977220;28;20119;-73
2021/06/21 06:41:38;;;;;;;3.75;1.90;;;;;;;19.26;100.00;99983.13;4974268;28;20088;-73
2021/06/21 06:44:04;;;;;;;5.82;2.58;;;;;;;19.34;100.00;99975.53;4997308;28;20563;-73
2021/06/21 06:46:31;;;;;;;5.00;1.80;;;;;;;19.40;100.00;99985.53;4987974;28;20057;-73
2021/06/21 06:48:57;;;;;;;2.08;1.88;;;;;;;19.41;100.00;99983.56;4983155;28;20185;-73
2021/06/21 06:51:23;;;;;;;2.25;1.90;;;;;;;19.47;100.00;99979.09;4978901;28;20541;-73
2021/06/21 06:54:06;;;;;;;2.33;2.15;;;;;;;19.37;100.00;99988.34;4992392;28;20026;-73
2021/06/21 06:59:16;;;;;;;2.58;2.38;;;;;;;19.24;100.00;99984.78;4991466;28;20049;-73
2021/06/21 07:01:43;;;;;;;2.80;2.60;;;;;;;19.26;100.00;99983.13;4992120;28;20030;-73
2021/06/21 07:04:09;;;;;;;2.83;2.63;;;;;;;19.25;100.00;99987.06;4981799;28;20034;-73
2021/06/21 07:06:37;;;;;;;4.63;3.20;;;;;;;19.40;100.00;99979.28;4989141;28;20029;-73
2021/06/21 07:09:04;;;;;;;4.18;3.15;;;;;;;19.41;100.00;99973.41;4990599;28;20455;-73
2021/06/21 07:11:29;;;;;;;4.50;3.50;;;;;;;19.39;100.00;99978.53;4973400;28;20030;-73
2021/06/21 07:13:55;;;;;;;4.55;3.28;;;;;;;19.23;100.00;99984.00;4978235;28;20539;-73
2021/06/21 07:16:21;;;;;;;4.53;3.05;;;;;;;19.09;100.00;99987.06;4990090;28;20503;-73
2021/06/21 07:18:46;;;;;;;4.25;3.10;;;;;;;19.16;100.00;99986.13;4991914;28;20040;-73
2021/06/21 07:21:12;;;;;;;8.27;3.78;;;;;;;19.12;100.00;99980.00;4984435;28;20028;-73
2021/06/21 07:23:38;;;;;;;5.90;3.80;;;;;;;19.22;100.00;99984.44;4987395;28;20097;-74
2021/06/21 07:26:05;;;;;;;5.88;3.30;;;;;;;19.09;100.00;99975.38;4984358;28;20053;-73
2021/06/21 07:28:32;;;;;;;4.00;3.60;;;;;;;19.19;100.00;99974.34;4983653;28;20436;-73
2021/06/21 07:30:58;;;;;;;7.07;3.38;;;;;;;19.11;100.00;99973.75;4986586;28;20030;-73
2021/06/21 07:33:23;;;;;;;3.85;3.10;;;;;;;19.19;100.00;99980.59;4978903;28;20100;-73
2021/06/21 07:35:50;;;;;;;5.35;3.13;;;;;;;19.27;100.00;99972.97;4989313;28;20046;-73
2021/06/21 07:38:16;;;;;;;5.00;2.97;;;;;;;19.23;100.00;99978.53;4991017;28;20439;-73
2021/06/21 07:40:42;;;;;;;5.28;2.95;;;;;;;19.29;100.00;99984.22;4992024;28;20042;-73
2021/06/21 07:43:08;;;;;;;4.65;3.00;;;;;;;19.31;100.00;99995.50;4990212;28;20030;-73
2021/06/21 07:45:33;;;;;;;5.53;3.40;;;;;;;19.31;100.00;100001.72;5005599;28;20037;-73
2021/06/21 07:48:00;;;;;;;5.25;2.97;;;;;;;19.16;100.00;99997.84;4989681;28;20037;-74
2021/06/21 07:50:27;;;;;;;4.95;2.97;;;;;;;19.33;100.00;100001.31;4974016;28;20037;-74
2021/06/21 07:52:57;;;;;;;6.05;3.30;;;;;;;19.34;100.00;100011.81;4987288;28;20396;-73
2021/06/21 07:55:25;;;;;;;3.60;3.20;;;;;;;19.21;100.00;100004.72;4970434;28;20034;-73
2021/06/21 07:57:54;;;;;;;4.90;3.70;;;;;;;19.25;100.00;100019.84;4989462;28;20554;-73
2021/06/21 08:00:23;;;;;;;2.92;2.63;;;;;;;19.19;100.00;100010.63;4990323;28;20030;-73
2021/06/21 08:02:49;;;;;;;5.20;2.78;;;;;;;19.17;100.00;100014.97;5038447;23;20079;-77
2021/06/21 08:05:15;;;;;;;4.72;2.80;;;;;;;19.25;100.00;100005.41;4949951;28;20117;-77
2021/06/21 08:07:42;;;;;;;4.25;2.75;;;;;;;19.28;100.00;100002.56;4950334;28;20059;-76
2021/06/21 08:10:08;;;;;;;2.90;2.70;;;;;;;19.26;100.00;100007.69;4950129;29;20043;-77
2021/06/21 08:12:33;;;;;;;4.25;2.55;;;;;;;19.34;100.00;100013.78;4967097;28;20036;-77
2021/06/21 08:14:59;;;;;;;3.65;2.50;;;;;;;19.27;100.00;100011.19;4949742;29;20035;-77
2021/06/21 08:17:24;;;;;;;4.60;2.72;;;;;;;19.24;100.00;100010.09;4966412;28;20046;-77
2021/06/21 08:19:50;;;;;;;3.95;2.42;;;;;;;19.31;100.00;100015.38;4951623;28;20407;-77
2021/06/21 08:22:21;;;;;;;2.65;2.42;;;;;;;19.46;100.00;100002.16;4934325;29;20458;-77
2021/06/21 08:24:50;;;;;;;3.97;2.40;;;;;;;19.42;100.00;100007.72;4946405;29;20051;-77
2021/06/21 08:27:16;;;;;;;2.22;2.03;;;;;;;19.48;100.00;100005.22;4950715;28;20046;-76
2021/06/21 08:29:42;;;;;;;2.33;2.03;;;;;;;19.43;100.00;100011.22;4949562;29;20039;-77
2021/06/21 08:32:08;;;;;;;6.15;2.17;;;;;;;19.43;100.00;100014.72;4951220;28;20078;-77
2021/06/21 08:34:34;;;;;;;3.10;2.25;;;;;;;19.34;100.00;100009.09;4948995;29;20047;-77
2021/06/21 08:37:00;;;;;;;1.88;1.77;;;;;;;19.34;100.00;100006.34;4965636;28;20134;-77
2021/06/21 08:39:25;;;;;;;2.80;1.90;;;;;;;19.27;100.00;100011.19;4928651;29;20082;-77
2021/06/21 08:41:53;;;;;;;2.53;2.33;;;;;;;19.41;100.00;100011.66;4950960;28;20409;-77
2021/06/21 08:44:19;;;;;;;2.30;2.10;;;;;;;19.39;100.00;100019.50;4948433;29;20150;-77
2021/06/21 08:46:48;;;;;;;11.82;2.55;;;;;;;19.40;100.00;100017.50;4950052;28;20114;-76
2021/06/21 08:49:14;;;;;;;2.70;2.20;;;;;;;19.45;100.00;100012.28;4951176;28;20615;-77
2021/06/21 08:51:41;;;;;;;11.02;2.47;;;;;;;19.36;100.00;100014.09;4965668;28;20078;-77
2021/06/21 08:54:06;;;;;;;3.67;2.60;;;;;;;19.43;100.00;100012.00;4948271;28;20401;-77
2021/06/21 08:56:32;;;;;;;2.97;2.65;;;;;;;19.38;100.00;100019.91;4948928;28;20045;-77
2021/06/21 08:58:57;;;;;;;2.55;2.35;;;;;;;19.40;100.00;100021.03;4965371;28;20043;-75
2021/06/21 09:01:23;;;;;;;3.20;2.63;;;;;;;19.48;100.00;100024.34;4947476;28;20086;-76
2021/06/21 09:03:48;;;;;;;2.60;2.40;;;;;;;19.42;100.00;100023.31;4949329;28;20046;-77
2021/06/21 09:06:19;;;;;;;5.53;2.13;;;;;;;19.33;100.00;100020.44;4949450;28;20039;-77
2021/06/21 09:08:55;;;;;;;13.98;2.25;;;;;;;19.30;100.00;100015.81;4951561;29;20035;-76
2021/06/21 09:11:47;;;;;;;2.25;2.00;;;;;;;19.28;100.00;100016.22;4950774;29;20442;-76
2021/06/21 09:14:25;;;;;;;1.77;1.67;;;;;;;19.30;100.00;100013.84;4947125;29;20529;-76
2021/06/21 09:17:10;;;;;;;1.90;1.70;;;;;;;19.36;100.00;100022.31;4952822;28;20038;-77
2021/06/21 09:19:53;;;;;;;2.00;1.90;;;;;;;19.32;100.00;100014.22;4954818;28;20059;-77
2021/06/21 09:22:32;;;;;;;4.35;2.10;;;;;;;19.34;100.00;100013.78;4948131;29;20206;-77
2021/06/21 09:25:01;;;;;;;4.75;2.42;;;;;;;19.41;100.00;100016.34;4953615;28;20533;-76
2021/06/21 09:27:26;;;;;;;3.10;2.08;;;;;;;19.44;100.00;100001.81;4953937;28;20023;-77
2021/06/21 09:29:52;;;;;;;2.10;1.90;;;;;;;19.55;100.00;100011.25;4953330;29;20058;-76
2021/06/21 09:32:19;;;;;;;4.45;1.90;;;;;;;19.70;100.00;100006.94;4950161;28;20054;-77
2021/06/21 09:34:46;;;;;;;2.30;2.10;;;;;;;19.74;100.00;100002.13;4968872;28;20102;-76
2021/06/21 09:37:15;;;;;;;2.40;2.17;;;;;;;19.73;100.00;100003.34;4949722;29;20035;-77
2021/06/21 09:39:43;;;;;;;4.97;1.92;;;;;;;19.62;100.00;100004.84;4951683;28;20043;-77
2021/06/21 09:42:08;;;;;;;4.53;2.10;;;;;;;19.62;100.00;100000.16;4951568;28;20043;-76
2021/06/21 09:44:39;;;;;;;3.72;2.35;;;;;;;19.76;100.00;100007.19;4953538;29;20034;-77
2021/06/21 09:47:30;;;;;;;2.88;2.05;;;;;;;19.73;100.00;100005.31;4946156;28;20043;-76
2021/06/21 09:49:58;;;;;;;2.40;2.20;;;;;;;19.64;100.00;100010.66;4947747;29;20166;-77
2021/06/21 09:52:45;;;;;;;2.72;2.20;;;;;;;19.56;100.00;99999.13;4952812;28;20106;-77
2021/06/21 09:55:38;;;;;;;3.88;2.13;;;;;;;19.57;100.00;100005.34;4967566;28;20123;-77
2021/06/21 09:58:12;;;;;;;2.95;2.20;;;;;;;19.76;100.00;100007.19;4945755;28;20050;-77
2021/06/21 10:00:48;;;;;;;4.22;2.72;;;;;;;19.78;100.00;100013.00;4968328;28;20497;-77
2021/06/21 10:03:15;;;;;;;9.35;3.53;;;;;;;19.74;100.00;100006.84;4951612;29;20085;-76
2021/06/21 10:05:43;;;;;;;3.38;3.10;;;;;;;19.64;100.00;100007.91;4952654;28;20035;-76
2021/06/21 10:08:12;;;;;;;3.60;3.30;;;;;;;19.82;100.00;100008.19;4953863;28;20493;-76
2021/06/21 10:10:38;;;;;;;3.60;3.30;;;;;;;19.95;100.00;100013.69;4967920;28;20118;-76
2021/06/21 10:13:05;;;;;;;4.72;3.90;;;;;;;19.79;100.00;100009.81;4952706;29;20023;-76
2021/06/21 10:15:30;;;;;;;4.43;3.50;;;;;;;19.71;100.00;100022.16;4948178;29;20027;-76
2021/06/21 10:17:56;;;;;;;7.50;3.55;;;;;;;19.82;100.00;100023.81;4952156;28;20486;-77
2021/06/21 10:20:22;;;;;;;3.58;3.28;;;;;;;19.88;100.00;100016.63;4950694;28;20027;-77
2021/06/21 10:22:47;;;;;;;4.13;3.58;;;;;;;19.85;100.00;100025.69;4950179;29;20534;-77
2021/06/21 10:25:14;;;;;;;3.30;3.00;;;;;;;19.98;100.00;100029.22;4951009;29;20019;-76
2021/06/21 10:27:42;;;;;;;4.25;3.33;;;;;;;20.00;100.00;100015.88;4950718;28;20090;-76
2021/06/21 10:30:15;;;;;;;3.75;3.45;;;;;;;19.95;100.00;100024.63;4967566;28;20150;-77
2021/06/21 10:32:41;;;;;;;3.95;3.65;;;;;;;20.10;100.00;100020.28;4952452;29;20085;-77
2021/06/21 10:35:11;;;;;;;4.32;3.67;;;;;;;20.34;100.00;100021.56;4951525;28;20517;-77
2021/06/21 10:37:36;;;;;;;4.93;4.07;;;;;;;20.49;100.00;100025.41;4939593;29;20038;-76
2021/06/21 10:40:09;;;;;;;4.75;3.95;;;;;;;20.45;100.00;100024.75;4948660;28;20023;-76
2021/06/21 10:42:42;;;;;;;4.72;3.45;;;;;;;20.33;100.00;100036.44;4951589;29;20510;-76
2021/06/21 10:45:23;;;;;;;4.03;3.63;;;;;;;20.36;100.00;100032.84;4951256;28;20117;-76
2021/06/21 10:48:10;;;;;;;6.22;3.15;;;;;;;20.25;100.00;100029.63;4950968;29;20031;-77
2021/06/21 10:50:50;;;;;;;6.00;3.50;;;;;;;20.16;100.00;100043.94;4950618;29;20520;-76
2021/06/21 10:53:16;;;;;;;4.45;4.00;;;;;;;20.12;100.00;100046.00;4947579;28;20039;-77
2021/06/21 10:55:47;;;;;;;7.38;3.17;;;;;;;20.06;100.00;100044.22;4949019;29;20067;-76
2021/06/21 10:58:19;;;;;;;3.80;3.35;;;;;;;20.14;100.00;100048.28;4967140;28;20582;-77
2021/06/21 11:00:48;;;;;;;3.67;3.38;;;;;;;20.24;100.00;100041.78;4951120;28;20039;-76
2021/06/21 11:03:33;;;;;;;4.90;3.83;;;;;;;20.19;100.00;100034.88;4950673;29;20043;-77
2021/06/21 11:06:22;;;;;;;3.90;3.25;;;;;;;20.08;100.00;100042.59;4951737;29;20063;-76
2021/06/21 11:08:51;;;;;;;5.28;3.47;;;;;;;20.28;100.00;100036.97;4952546;29;20098;-77
2021/06/21 11:11:35;;;;;;;3.22;2.92;;;;;;;20.21;100.00;100053.59;4948624;29;20023;-76
2021/06/21 11:14:23;;;;;;;4.20;3.60;;;;;;;20.24;100.00;100047.25;4952495;28;20032;-76
2021/06/21 11:17:10;;;;;;;5.22;3.53;;;;;;;20.33;100.00;100044.63;4966774;28;20130;-76
2021/06/21 11:19:37;;;;;;;6.78;3.95;;;;;;;20.25;100.00;100040.56;4925236;29;20449;-76
2021/06/21 11:22:06;;;;;;;7.03;4.53;;;;;;;20.19;100.00;100045.06;4950412;29;20094;-76
2021/06/21 11:24:42;;;;;;;4.10;3.70;;;;;;;20.53;100.00;100054.19;4950957;29;20043;-77
2021/06/21 11:27:10;;;;;;;4.53;4.13;;;;;;;20.57;100.00;100054.09;4965503;28;20415;-77
2021/06/21 11:29:41;;;;;;;4.40;4.10;;;;;;;20.38;100.00;100066.00;4950062;28;20054;-77